• Join FlightAware (Why Join?)
  • Login
  • US Flag 
03:39AM EDT


 

Airport Tracker/Info


-or-


 

Live Flight TrackerFlight Track Log ✈ JA-614J ✈ 05-Apr-2013 ✈ RKSI / ICN - RJAA / NRT

Flight Track Log - Related Links

Times and Time Zones

All times are in EDT time to prevent confusion due to time zone crossing. See the JA-614J flight status page for this flight to view local times or setup timezone preferences in your user account.

Time Position Orientation Groundspeed Altitude Reporting Facility
EDT Latitude Longitude Course Direction KTS MPH feet Rate Location/Type
07:20PM 37.3960 126.5490 94° East 232 267 5,000  Level FlightAware
07:20PM 37.3760 126.5780 131° Southeast 253 291 6,000 2,520 Climbing FlightAware
07:21PM 37.4450 126.8308 94° East  Level Estimated
07:21PM 37.3680 126.5850 145° Southeast 253 291 6,500  Level FlightAware
07:21PM 37.3460 126.6090 139° Southeast 253 291 6,500 3,240 Level FlightAware
07:21PM 37.3100 126.6120 176° South 257 296 9,200 3,960 Climbing FlightAware
07:22PM 37.2820 126.6320 150° Southeast 274 315 9,800 480 Climbing FlightAware
07:23PM 37.2750 126.7230 95° East 303 349 9,900 60 Climbing FlightAware
07:23PM 37.2790 126.7590 82° East 302 348 9,900  Level FlightAware
07:24PM 37.2830 126.8340 86° East 356 410 9,900  Level FlightAware
07:24PM 37.2850 126.8640 85° East 360 414 9,900 1,080 Level FlightAware
07:25PM 37.2950 126.9960 85° East 400 460 11,300 1,800 Climbing FlightAware
07:26PM 37.3320 127.1580 74° East 437 503 13,900 2,340 Climbing FlightAware
07:27PM 37.3800 127.2260 48° Northeast 445 512 15,400 2,520 Climbing FlightAware
07:28PM 37.4480 127.3230 49° Northeast 449 517 17,500 2,220 Climbing FlightAware
07:29PM 37.5000 127.4550 64° Northeast 477 549 19,300 1,920 Climbing FlightAware
07:29PM 37.5180 127.5650 78° East 489 563 20,600 2,040 Climbing FlightAware
07:30PM 37.5380 127.6930 79° East 500 575 22,200 1,800 Climbing FlightAware
07:31PM 37.5700 127.8990 79° East 521 600 24,100 1,620 Climbing FlightAware
07:32PM 37.6020 128.1030 79° East 540 621 26,100 1,440 Climbing FlightAware
07:33PM 37.6220 128.2340 79° East 541 623 26,800 480 Climbing FlightAware
07:34PM 37.6380 128.3390 79° East 541 623 26,800  Level FlightAware
07:34PM 37.6540 128.4450 79° East 541 623 26,800  Level FlightAware
07:35PM 37.6750 128.5760 79° East 541 623 26,800  Level FlightAware
07:36PM 37.6910 128.6820 79° East 541 623 26,800  Level FlightAware
07:36PM 37.7070 128.7880 79° East 541 623 26,800 420 Level FlightAware
07:39PM 37.6766 129.0491 98° East  Level Estimated
07:40PM 37.6616 129.1763 98° East  Level Estimated
07:41PM 37.6464 129.3035 99° East  Level Estimated
07:42PM 37.6311 129.4307 99° East  Level Estimated
07:43PM 37.6157 129.5578 99° East  Level Estimated
07:44PM 37.6001 129.6849 99° East  Level Estimated
07:45PM 37.5844 129.8119 99° East  Level Estimated
07:46PM 37.5686 129.9388 99° East  Level Estimated
07:47PM 37.5526 130.0658 99° East  Level Estimated
07:48PM 37.5365 130.1926 99° East  Level Estimated
07:49PM 37.5202 130.3194 99° East  Level Estimated
07:50PM 37.5037 130.4473 99° East  Level Estimated
07:51PM 37.4870 130.5751 99° East  Level Estimated
07:52PM 37.4702 130.7029 99° East  Level Estimated
07:53PM 37.4532 130.8306 99° East  Level Estimated
07:54PM 37.4361 130.9582 100° East  Level Estimated
07:55PM 37.4189 131.0858 100° East  Level Estimated
07:56PM 37.4016 131.2134 100° East  Level Estimated
07:57PM 37.3840 131.3408 100° East  Level Estimated
07:58PM 37.3664 131.4683 100° East  Level Estimated
07:59PM 37.3486 131.5956 100° East  Level Estimated
08:00PM 37.3307 131.7229 100° East  Level Estimated
08:00PM 36.3320 132.6290 100° East 527 606 37,000  Level FlightAware
08:00PM 36.3270 132.7390 93° East 523 602 37,000  Level FlightAware
08:01PM 36.3220 132.8800 92° East 517 595 37,000  Level FlightAware
08:02PM 36.3170 132.9940 93° East 517 595 37,000  Level FlightAware
08:02PM 36.3110 133.1370 93° East 515 593 37,000  Level FlightAware
08:03PM 36.3040 133.2910 93° East 513 590 37,000  Level FlightAware
08:04PM 36.2960 133.4550 93° East 514 592 37,000  Level FlightAware
08:05PM 36.2920 133.5460 93° East 514 592 37,000  Level FlightAware
08:06PM 36.2840 133.7060 94° East 513 590 37,000  Level FlightAware
08:06PM 36.2780 133.8240 94° East 512 589 37,000  Level FlightAware
08:07PM 36.2720 133.9560 93° East 511 588 37,000  Level FlightAware
08:08PM 36.2660 134.0700 94° East 512 589 37,000  Level FlightAware
08:08PM 36.2590 134.2000 94° East 513 590 37,000  Level FlightAware
08:09PM 36.2530 134.3210 93° East 514 592 37,000  Level FlightAware
08:10PM 36.2470 134.4320 94° East 515 593 37,000  Level FlightAware
08:11PM 36.2540 134.5670 86° East 504 580 37,000  Level FlightAware
08:11PM 36.2720 134.6820 79° East 502 578 37,000  Level FlightAware
08:12PM 36.2920 134.7970 78° East 499 574 37,000  Level FlightAware
08:13PM 36.3120 134.9190 78° East 493 567 37,000  Level FlightAware
08:13PM 36.3330 135.0410 78° East 486 559 37,000  Level FlightAware
08:14PM 36.3510 135.1520 79° East 483 556 37,000  Level FlightAware
08:15PM 36.3670 135.2520 79° East 483 556 37,000  Level FlightAware
08:15PM 36.3880 135.3800 78° East 487 560 37,000  Level FlightAware
08:16PM 36.4050 135.4870 79° East 493 567 37,000  Level FlightAware
08:17PM 36.4260 135.6150 78° East 496 571 37,000  Level FlightAware
08:18PM 36.4440 135.7290 79° East 495 570 37,000  Level FlightAware
08:18PM 36.4600 135.8330 79° East 494 568 37,000  Level FlightAware
08:19PM 36.4800 135.9560 79° East 493 567 37,000  Level FlightAware
08:20PM 36.4940 136.0520 80° East 493 567 37,000  Level FlightAware
08:20PM 36.5170 136.1970 79° East 493 567 37,000  Level FlightAware
08:22PM 36.5560 136.4510 79° East 491 565 37,000  Level FlightAware
08:23PM 36.5730 136.5620 79° East 490 564 37,000  Level FlightAware
08:23PM 36.5940 136.7010 79° East 488 562 37,000  Level FlightAware
08:24PM 36.6090 136.8080 80° East 484 557 37,000 -840 Level FlightAware
08:26PM 36.6490 137.0810 80° East 476 548 35,100 -600 Descending FlightAware
08:27PM 36.6910 137.3710 107° East 496 571 35,000 -60 Descending FlightAware
08:28PM 36.5936 137.3009 107° East  Level Estimated
08:28PM 36.7090 137.5040 80° East 498 573 35,000  Level FlightAware
08:29PM 36.7250 137.6200 80° East 497 572 35,000 -180 Level FlightAware
08:30PM 36.7430 137.7430 80° East 495 570 34,800 -840 Descending FlightAware
08:30PM 36.7580 137.8550 80° East 500 575 33,900 -1,140 Descending FlightAware
08:31PM 36.7740 137.9730 80° East 502 578 33,300 -660 Descending FlightAware
08:32PM 36.7890 138.0860 81° East 503 579 33,000 -240 Descending FlightAware
08:32PM 36.8060 138.2060 80° East 505 581 33,000  Level FlightAware
08:33PM 36.8210 138.3140 80° East 505 581 33,000  Level FlightAware
08:34PM 36.8380 138.4450 81° East 505 581 33,000  Level FlightAware
08:35PM 36.8550 138.5690 80° East 505 581 33,000  Level FlightAware
08:35PM 36.8710 138.6950 81° East 506 582 33,000  Level FlightAware
08:36PM 36.8820 138.8220 84° East 508 585 33,000  Level FlightAware
08:37PM 36.8860 138.9410 88° East 510 587 33,000  Level FlightAware
08:37PM 36.8870 139.0770 89° East 511 588 33,000 -540 Level FlightAware
08:38PM 36.8880 139.1950 89° East 512 589 32,300 -1,320 Descending FlightAware
08:39PM 36.8840 139.3260 92° East 515 593 31,200 -1,800 Descending FlightAware
08:39PM 36.8640 139.4400 102° East 519 597 29,800 -2,040 Descending FlightAware
08:40PM 36.8370 139.5550 106° East 508 585 28,500 -1,920 Descending FlightAware
08:41PM 36.8070 139.6810 107° East 495 570 27,100 -1,140 Descending FlightAware
08:41PM 36.7840 139.7740 107° East 489 563 27,000 -1,380 Descending FlightAware
08:42PM 36.7570 139.8820 107° East 482 555 25,400 -2,220 Descending FlightAware
08:43PM 36.7320 139.9830 107° East 472 543 23,900 -2,280 Descending FlightAware
08:44PM 36.6880 140.0910 117° Southeast 455 524 22,200 -2,340 Descending FlightAware
08:44PM 36.6210 140.1780 134° Southeast 440 506 20,400 -1,980 Descending FlightAware
08:45PM 36.5740 140.2350 136° Southeast 445 512 19,400 -1,740 Descending FlightAware
08:46PM 36.5060 140.3160 136° Southeast 443 510 18,100 -1,740 Descending FlightAware
08:47PM 36.4200 140.4190 136° Southeast 427 491 16,500 -1,740 Descending FlightAware
08:47PM 36.3590 140.4930 136° Southeast 423 487 15,200 -1,680 Descending FlightAware
08:48PM 36.3100 140.5390 143° Southeast 412 474 14,400 -1,620 Descending FlightAware
08:49PM 36.2320 140.5780 158° South 411 473 13,200 -1,740 Descending FlightAware
08:49PM 36.1570 140.6110 160° South 397 457 12,000 -1,020 Descending FlightAware
08:50PM 36.0870 140.6420 160° South 341 392 11,800 -240 Descending FlightAware
08:51PM 36.0300 140.6680 160° South 313 360 11,700 -420 Descending FlightAware
08:51PM 35.9770 140.6920 160° South 290 334 11,300 -720 Descending FlightAware
08:52PM 35.9220 140.7180 159° South 277 319 10,700 -660 Descending FlightAware
08:53PM 35.8720 140.7410 160° South 276 318 10,400 -540 Descending FlightAware
08:53PM 35.8230 140.7640 159° South 273 314 10,000 -720 Descending FlightAware
08:54PM 35.7870 140.7800 160° South 277 319 9,600 -1,020 Descending FlightAware
08:54PM 35.7510 140.7950 161° South 273 314 9,000 -1,200 Descending FlightAware
08:55PM 35.7240 140.8070 160° South 272 313 8,500 -1,380 Descending FlightAware
08:56PM 35.6700 140.7910 194° South 271 312 7,400 -1,320 Descending FlightAware
08:56PM 35.6500 140.7690 222° Southwest 264 304 7,000 -660 Descending FlightAware
08:57PM 35.6230 140.7370 224° Southwest 245 282 6,800 -480 Descending FlightAware
08:57PM 35.6010 140.7180 215° Southwest 230 265 6,600 -720 Descending FlightAware
08:57PM 35.5760 140.6990 212° Southwest 213 245 6,200 -780 Descending FlightAware
08:58PM 35.5520 140.6790 214° Southwest 212 244 5,900 -600 Descending FlightAware
08:58PM 35.5370 140.6660 215° Southwest 214 246 5,700 -600 Descending FlightAware
08:59PM 35.5290 140.6400 249° West 219 252 5,500 -600 Descending FlightAware
08:59PM 35.5330 140.6180 283° West 216 249 5,300 -540 Descending FlightAware
08:59PM 35.5460 140.5980 309° West 214 246 5,100 -780 Descending FlightAware
09:00PM 35.5650 140.5670 307° West 202 232 4,600 -1,020 Descending FlightAware
09:00PM 35.5770 140.5480 308° West 204 235 4,200 -1,200 Descending FlightAware
09:01PM 35.6030 140.5240 323° Northwest 204 235 3,500 -840 Descending FlightAware
09:01PM 35.6290 140.5030 327° Northwest 205 236 3,300 -780 Descending FlightAware
09:02PM 35.6460 140.4930 334° Northwest 195 224 2,800 -840 Descending FlightAware
09:02PM 35.6790 140.4700 330° Northwest 185 213 2,400 -720 Descending FlightAware
09:03PM 35.6970 140.4560 328° Northwest 188 216 2,000 -960 Descending FlightAware
09:03PM 35.7150 140.4430 330° Northwest 180 207 1,600 -1,020 Descending FlightAware
09:04PM 35.7400 140.4260 331° Northwest 156 180 1,000 -900 Descending FlightAware
09:04PM 35.7540 140.4150 327° Northwest 156 180 700 -720 Descending FlightAware
09:05PM 35.7650 140.4070 329° Northwest 152 175 500 -600 Descending FlightAware